Terminal Aerodrome Forecast
Issued by NWS Tulsa, OK

Home | Current Version | Previous Version | Text Only | Print | Product List | Glossary On
Versions: 1 2 3 4 5 6 7 8 9 10 11 12 13 14
000
FTUS44 KTSA 261100
TAFTUL
TAF
KTUL 261139Z 2612/2712 05013KT P6SM BKN012
     FM261700 06013G19KT P6SM BKN025
     FM262000 06014G20KT P6SM SCT035 SCT150
     FM270000 07012KT P6SM BKN035 PROB30 2700/2703 -TSRA BKN025CB
     FM270300 07011KT P6SM VCTS BKN035CB PROB30 2706/2712 -TSRA
      BKN025CB=

USA.gov is the U.S. government's official web portal to all federal, state and local government web resources and services.